Time;durP1;ratioP1;P1;durP2;ratioP2;P2;SDS_P1;SDS_P2;PMS_P1;PMS_P2;Temp;Humidity;BMP_temperature;BMP_pressure;BME280_temperature;BME280_humidity;BME280_pressure;Samples;Min_cycle;Max_cycle;Signal;HPM_P1;HPM_P2
2023/03/31 00:01:11;;;;;;;14.75;5.35;;;;;;;6.80;53.31;100911.72;4975485;28;20062;-81
2023/03/31 00:03:37;;;;;;;13.50;4.97;;;;;;;6.73;53.34;100905.03;4992238;28;20065;-81
2023/03/31 00:06:04;;;;;;;9.43;4.80;;;;;;;6.55;54.06;100905.19;4958299;28;20042;-81
2023/03/31 00:08:34;;;;;;;15.25;5.93;;;;;;;6.52;53.32;100900.03;4993236;28;20026;-82
2023/03/31 00:11:01;;;;;;;24.52;6.65;;;;;;;6.61;53.30;100889.72;4992561;28;20030;-81
2023/03/31 00:13:27;;;;;;;19.25;4.93;;;;;;;6.60;53.10;100893.38;4992443;28;20517;-80
2023/03/31 00:15:58;;;;;;;13.02;5.00;;;;;;;6.68;52.17;100891.06;5011578;28;20086;-80
2023/03/31 00:18:24;;;;;;;25.52;6.05;;;;;;;6.68;52.42;100881.25;4995630;28;20069;-83
2023/03/31 00:20:52;;;;;;;11.60;5.43;;;;;;;6.49;52.37;100881.50;4992304;28;20525;-81
2023/03/31 00:23:26;;;;;;;16.90;5.82;;;;;;;6.49;52.56;100878.84;4992241;28;20053;-81
2023/03/31 00:25:51;;;;;;;16.73;7.10;;;;;;;6.55;52.02;100869.59;4991594;28;20518;-83
2023/03/31 00:28:17;;;;;;;14.68;6.15;;;;;;;6.61;51.91;100879.03;4992164;28;20121;-81
2023/03/31 00:30:42;;;;;;;26.67;7.07;;;;;;;6.56;51.93;100872.19;4991881;28;20030;-83
2023/03/31 00:33:08;;;;;;;36.78;7.72;;;;;;;6.50;51.87;100861.00;4991400;28;20092;-82
2023/03/31 00:35:37;;;;;;;11.07;6.70;;;;;;;6.24;52.55;100865.22;4991277;28;20085;-83
2023/03/31 00:38:04;;;;;;;13.73;6.80;;;;;;;6.22;52.42;100861.81;4991178;28;20117;-81
2023/03/31 00:40:30;;;;;;;10.80;5.80;;;;;;;6.22;52.02;100856.47;4991400;28;20026;-81
2023/03/31 00:42:56;;;;;;;11.40;5.95;;;;;;;6.37;51.09;100860.00;4992070;28;20355;-82
2023/03/31 00:45:21;;;;;;;9.00;4.93;;;;;;;6.44;51.66;100856.03;4992100;28;20029;-81
2023/03/31 00:48:08;;;;;;;13.65;6.80;;;;;;;6.36;51.81;100850.31;4993104;28;20034;-82
2023/03/31 00:50:48;;;;;;;14.30;6.82;;;;;;;6.43;51.61;100857.84;4986150;28;20078;-83
2023/03/31 00:53:17;;;;;;;12.30;6.43;;;;;;;6.40;51.34;100843.81;5006410;28;20026;-83
2023/03/31 00:55:48;;;;;;;13.48;5.80;;;;;;;6.39;51.38;100842.94;5008374;28;20030;-81
2023/03/31 00:58:18;;;;;;;10.55;5.32;;;;;;;6.41;50.96;100833.03;5001690;28;20023;-80
2023/03/31 01:00:46;;;;;;;15.07;5.03;;;;;;;6.30;51.01;100837.31;4996175;28;20034;-81
2023/03/31 01:03:12;;;;;;;14.35;5.78;;;;;;;6.34;51.27;100839.69;4991477;28;20169;-82
2023/03/31 01:06:05;;;;;;;16.00;6.78;;;;;;;6.43;50.98;100831.13;4991333;28;20041;-82
2023/03/31 01:08:37;;;;;;;31.85;8.48;;;;;;;6.40;51.15;100822.44;4991879;28;20038;-82
2023/03/31 01:11:09;;;;;;;15.07;5.85;;;;;;;6.30;51.50;100819.47;5005236;28;20485;-81
2023/03/31 01:13:40;;;;;;;21.60;6.55;;;;;;;6.30;51.05;100816.78;5008529;28;20053;-82
2023/03/31 01:16:06;;;;;;;13.68;4.72;;;;;;;6.08;51.55;100799.50;4997828;28;20101;-81
2023/03/31 01:18:34;;;;;;;19.10;5.10;;;;;;;6.17;51.30;100810.50;4990890;28;20474;-81
2023/03/31 01:21:18;;;;;;;19.95;5.05;;;;;;;6.19;51.37;100821.94;4991163;28;20038;-80
2023/03/31 01:24:05;;;;;;;11.95;5.43;;;;;;;6.07;51.36;100798.63;4990711;28;20065;-81
2023/03/31 01:27:08;;;;;;;8.45;4.88;;;;;;;6.16;51.52;100802.56;4972846;28;20070;-81
2023/03/31 01:30:08;;;;;;;9.25;4.45;;;;;;;6.18;51.71;100800.63;4990344;28;20180;-81
2023/03/31 01:32:46;;;;;;;15.82;4.75;;;;;;;6.02;51.82;100792.72;4990693;28;20027;-81
2023/03/31 01:35:20;;;;;;;18.48;6.30;;;;;;;5.90;52.18;100780.09;4990606;28;20041;-83
2023/03/31 01:37:55;;;;;;;14.65;4.85;;;;;;;6.01;51.77;100793.66;4991218;28;20038;-81
2023/03/31 01:40:51;;;;;;;9.10;4.53;;;;;;;6.01;52.14;100782.97;4990636;28;20038;-81
2023/03/31 01:43:29;;;;;;;15.38;4.45;;;;;;;6.01;51.95;100782.97;4990647;28;20517;-83
2023/03/31 01:46:19;;;;;;;11.52;4.15;;;;;;;5.89;52.24;100794.41;4991496;28;20057;-82
2023/03/31 01:49:12;;;;;;;12.88;4.25;;;;;;;5.87;52.44;100789.13;4991352;28;20462;-81
2023/03/31 01:51:48;;;;;;;15.18;5.00;;;;;;;5.90;52.58;100769.44;4990232;28;20030;-81
2023/03/31 01:54:41;;;;;;;17.60;4.38;;;;;;;5.87;52.42;100759.78;4989828;28;20018;-82
2023/03/31 01:57:26;;;;;;;19.10;5.38;;;;;;;5.82;52.24;100748.50;4989185;28;20030;-82
2023/03/31 02:00:02;;;;;;;9.57;3.83;;;;;;;5.92;52.49;100763.03;4990070;28;20197;-82
2023/03/31 02:02:35;;;;;;;16.63;4.70;;;;;;;5.97;52.25;100760.09;4990186;28;20033;-81
2023/03/31 02:05:24;;;;;;;23.73;5.03;;;;;;;6.01;52.10;100762.50;4990212;28;20109;-82
2023/03/31 02:08:09;;;;;;;19.55;5.00;;;;;;;6.07;51.93;100755.91;4992941;28;20033;-83
2023/03/31 02:10:35;;;;;;;13.05;5.18;;;;;;;5.94;52.18;100746.91;5008453;28;20027;-83
2023/03/31 02:13:02;;;;;;;17.23;4.95;;;;;;;6.01;52.32;100750.94;5002871;28;20022;-82
2023/03/31 02:15:35;;;;;;;9.48;5.25;;;;;;;6.00;52.39;100743.88;4989682;28;20060;-83
2023/03/31 02:18:09;;;;;;;16.30;5.22;;;;;;;6.01;52.44;100740.28;4990468;28;20034;-82
2023/03/31 02:20:37;;;;;;;14.13;6.07;;;;;;;5.96;52.47;100737.03;4990215;28;20081;-82
2023/03/31 02:23:04;;;;;;;9.73;4.35;;;;;;;5.93;52.68;100738.06;4990236;28;20490;-80
2023/03/31 02:25:37;;;;;;;11.00;4.43;;;;;;;5.85;52.89;100723.41;4990433;28;20424;-83
2023/03/31 02:28:14;;;;;;;13.55;5.28;;;;;;;5.79;53.11;100723.78;4989994;28;20062;-81
2023/03/31 02:30:52;;;;;;;13.15;4.18;;;;;;;5.82;53.10;100724.47;4989356;28;20174;-81
2023/03/31 02:33:18;;;;;;;20.15;4.88;;;;;;;5.61;53.00;100719.56;4989157;28;20033;-81
2023/03/31 02:35:43;;;;;;;9.25;5.00;;;;;;;5.64;52.94;100714.03;4989503;28;20034;-81
2023/03/31 02:38:10;;;;;;;18.92;5.13;;;;;;;5.66;52.92;100709.47;4989487;28;20157;-82
2023/03/31 02:40:36;;;;;;;30.95;7.22;;;;;;;5.59;53.24;100705.47;4972638;28;20035;-83
2023/03/31 02:43:01;;;;;;;21.23;5.97;;;;;;;5.62;53.22;100705.28;4989789;28;20030;-83
2023/03/31 02:45:43;;;;;;;12.13;4.85;;;;;;;5.67;53.13;100708.53;4939090;28;20558;-82
2023/03/31 02:48:16;;;;;;;13.68;4.20;;;;;;;5.65;53.27;100703.28;4989620;28;20041;-81
2023/03/31 02:51:00;;;;;;;9.80;4.80;;;;;;;5.76;52.69;100715.97;4989580;28;20109;-81
2023/03/31 02:53:31;;;;;;;18.40;5.90;;;;;;;5.77;52.59;100705.22;4989705;28;20022;-81
2023/03/31 02:56:05;;;;;;;19.38;5.97;;;;;;;5.76;52.93;100699.97;4990229;28;20018;-81
2023/03/31 02:59:04;;;;;;;33.35;8.38;;;;;;;5.81;53.04;100697.91;4991091;28;20034;-80
2023/03/31 03:01:56;;;;;;;30.75;5.55;;;;;;;5.77;52.78;100677.69;4990563;28;20188;-82
2023/03/31 03:04:34;;;;;;;;;;;;;;;5.89;52.74;100693.84;4991577;28;20465;-81
2023/03/31 03:07:02;;;;;;;23.55;6.32;;;;;;;5.87;52.77;100689.53;4998271;28;19952;-82
2023/03/31 03:09:56;;;;;;;20.73;6.65;;;;;;;5.84;52.80;100679.84;5006636;28;20018;-79
2023/03/31 03:12:25;;;;;;;20.02;5.72;;;;;;;5.77;53.03;100672.34;4995964;28;20766;-81
2023/03/31 03:15:06;;;;;;;29.67;6.35;;;;;;;5.84;52.67;100679.03;4992646;28;20030;-80
2023/03/31 03:17:42;;;;;;;21.85;6.13;;;;;;;5.78;52.90;100680.22;4991757;28;20041;-81
2023/03/31 03:20:09;;;;;;;46.78;8.07;;;;;;;5.81;53.02;100676.53;4992741;28;20034;-79
2023/03/31 03:22:39;;;;;;;35.95;6.88;;;;;;;5.78;52.99;100669.56;4994811;28;20058;-81
2023/03/31 03:25:10;;;;;;;18.90;7.15;;;;;;;5.75;53.37;100666.25;4994707;28;20041;-82
2023/03/31 03:27:36;;;;;;;19.15;7.20;;;;;;;5.72;53.04;100663.75;4997408;28;20049;-79
2023/03/31 03:30:04;;;;;;;50.13;9.73;;;;;;;5.74;53.11;100667.19;4995618;28;20080;-83
2023/03/31 03:32:32;;;;;;;29.23;8.32;;;;;;;5.72;53.38;100663.75;4995967;28;20038;-82
2023/03/31 03:35:03;;;;;;;24.73;7.88;;;;;;;5.73;53.19;100663.66;4960247;28;20517;-82
2023/03/31 03:37:29;;;;;;;33.83;6.43;;;;;;;5.63;53.54;100665.16;4995505;28;20081;-82
2023/03/31 03:39:54;;;;;;;25.52;6.78;;;;;;;5.57;53.74;100662.84;4993007;28;20030;-79
2023/03/31 03:42:20;;;;;;;31.08;7.10;;;;;;;5.57;53.72;100659.31;4950292;28;20051;-80
2023/03/31 03:44:45;;;;;;;30.92;8.27;;;;;;;5.58;53.53;100661.06;4949368;29;20222;-79
2023/03/31 03:47:11;;;;;;;47.33;8.88;;;;;;;5.62;53.45;100667.94;4949402;29;20043;-81
2023/03/31 03:49:37;;;;;;;44.88;10.40;;;;;;;5.65;53.64;100675.75;4948935;28;20426;-80
2023/03/31 03:52:03;;;;;;;59.90;10.23;;;;;;;5.67;54.14;100673.84;4948985;28;20415;-79
2023/03/31 03:54:28;;;;;;;49.47;9.82;;;;;;;5.64;54.05;100653.53;4948608;28;20118;-79
2023/03/31 03:56:54;;;;;;;37.60;9.73;;;;;;;5.73;54.05;100662.78;4949333;28;20638;-85
2023/03/31 03:59:19;;;;;;;59.63;11.18;;;;;;;5.73;53.70;100666.31;4950423;29;20031;-83
2023/03/31 04:01:45;;;;;;;49.00;10.32;;;;;;;5.69;53.92;100658.63;4949888;28;20102;-82
2023/03/31 04:04:10;;;;;;;62.15;12.00;;;;;;;5.72;54.22;100661.09;4956200;28;20027;-78
2023/03/31 04:06:36;;;;;;;62.85;10.43;;;;;;;5.79;54.13;100657.94;4968760;28;20038;-81
2023/03/31 04:09:02;;;;;;;36.78;9.65;;;;;;;5.65;54.13;100639.25;4965341;28;20150;-83
2023/03/31 04:11:28;;;;;;;55.38;9.35;;;;;;;5.77;53.96;100640.31;4949769;28;20039;-82
2023/03/31 04:13:53;;;;;;;42.20;10.10;;;;;;;5.84;53.99;100639.00;4980284;28;20046;-86
2023/03/31 04:16:19;;;;;;;54.00;12.68;;;;;;;5.91;53.44;100632.34;4992672;28;20034;-84
2023/03/31 04:18:44;;;;;;;65.68;10.30;;;;;;;5.99;53.79;100630.91;4990381;28;20667;-83
2023/03/31 04:21:14;;;;;;;107.97;12.13;;;;;;;6.03;54.03;100639.56;4990754;28;20038;-86
2023/03/31 04:23:47;;;;;;;40.72;9.57;;;;;;;6.12;53.86;100638.13;4991766;28;20125;-80
2023/03/31 04:26:17;;;;;;;39.88;10.57;;;;;;;6.17;53.38;100620.03;4990858;28;20065;-82
2023/03/31 04:28:49;;;;;;;65.40;11.65;;;;;;;6.30;53.64;100634.34;4991867;28;20030;-84
2023/03/31 04:31:23;;;;;;;68.13;14.23;;;;;;;6.38;53.83;100640.91;4992282;28;20520;-83
2023/03/31 04:33:53;;;;;;;53.70;11.82;;;;;;;6.47;53.37;100634.97;4991249;28;20042;-86
2023/03/31 04:36:18;;;;;;;59.83;12.57;;;;;;;6.52;53.29;100619.47;4994688;28;20101;-82
2023/03/31 04:38:46;;;;;;;74.53;13.48;;;;;;;6.53;53.50;100615.88;4991093;28;20039;-82
2023/03/31 04:41:15;;;;;;;65.78;12.70;;;;;;;6.62;53.26;100618.88;4990704;28;20023;-84
2023/03/31 04:43:40;;;;;;;88.30;14.32;;;;;;;6.70;53.50;100624.56;4990753;28;20034;-84
2023/03/31 04:46:06;;;;;;;106.93;16.05;;;;;;;6.73;53.43;100611.88;4992418;28;20038;-82
2023/03/31 04:48:32;;;;;;;119.07;18.38;;;;;;;6.95;53.70;100622.00;4996418;28;20030;-83
2023/03/31 04:50:57;;;;;;;68.85;14.10;;;;;;;7.06;52.94;100608.78;4990786;28;20035;-83
2023/03/31 04:53:22;;;;;;;77.93;14.43;;;;;;;7.22;52.40;100620.16;4990156;28;20065;-82
2023/03/31 04:55:49;;;;;;;73.10;12.38;;;;;;;7.36;52.10;100606.72;4991282;28;20061;-83
2023/03/31 04:58:14;;;;;;;130.13;17.88;;;;;;;7.58;52.18;100612.28;4991405;28;20034;-85
2023/03/31 05:00:40;;;;;;;124.65;18.23;;;;;;;7.73;52.06;100601.50;4991160;28;20045;-82
2023/03/31 05:03:06;;;;;;;107.97;16.83;;;;;;;7.96;51.99;100590.00;5007651;28;20346;-80
2023/03/31 05:05:31;;;;;;;101.93;18.38;;;;;;;8.16;51.60;100592.97;5010911;28;20133;-82
2023/03/31 05:07:57;;;;;;;122.35;17.98;;;;;;;8.32;51.30;100591.91;4994443;28;20464;-83
2023/03/31 05:10:23;;;;;;;94.15;16.75;;;;;;;8.53;50.80;100588.50;4990892;28;20034;-84
2023/03/31 05:12:48;;;;;;;104.47;17.25;;;;;;;8.66;50.63;100581.25;4992232;28;20062;-83
2023/03/31 05:15:14;;;;;;;139.63;20.65;;;;;;;8.82;50.62;100578.31;4990910;28;20394;-83
2023/03/31 05:17:39;;;;;;;127.80;21.13;;;;;;;8.96;50.62;100578.09;4990301;28;20724;-83
2023/03/31 05:20:07;;;;;;;119.90;20.15;;;;;;;9.14;50.18;100570.50;4991160;28;20037;-81
2023/03/31 05:22:35;;;;;;;144.30;21.42;;;;;;;9.30;50.38;100571.03;4991172;28;20054;-83
2023/03/31 05:25:00;;;;;;;76.40;17.80;;;;;;;9.40;49.30;100557.75;5006535;28;20022;-85
2023/03/31 05:27:26;;;;;;;154.10;20.58;;;;;;;9.55;49.27;100554.72;5002625;28;20065;-82
2023/03/31 05:29:51;;;;;;;164.27;20.55;;;;;;;9.66;48.87;100561.97;4990023;28;20026;-84
2023/03/31 05:32:16;;;;;;;86.03;17.35;;;;;;;9.70;49.00;100540.09;4989691;28;20469;-83
2023/03/31 05:34:42;;;;;;;83.07;17.98;;;;;;;9.94;48.68;100555.25;4988993;28;20019;-83
2023/03/31 05:37:08;;;;;;;68.20;15.65;;;;;;;10.07;48.15;100546.09;4989298;28;20470;-86
2023/03/31 05:39:33;;;;;;;80.88;14.35;;;;;;;10.27;48.15;100550.72;4990720;28;20087;-83
2023/03/31 05:41:59;;;;;;;100.05;19.90;;;;;;;10.40;48.01;100547.88;4988766;28;20084;-81
2023/03/31 05:44:26;;;;;;;61.22;19.48;;;;;;;10.51;46.98;100545.19;4990118;28;20080;-82
2023/03/31 05:46:52;;;;;;;81.75;21.10;;;;;;;10.60;46.55;100530.97;4988879;28;20035;-83
2023/03/31 05:49:17;;;;;;;55.05;17.80;;;;;;;10.70;46.56;100549.91;4991240;28;20037;-84
2023/03/31 05:51:43;;;;;;;91.78;20.38;;;;;;;10.82;46.14;100543.50;4990961;28;20038;-82
2023/03/31 05:54:08;;;;;;;83.50;22.25;;;;;;;10.95;45.93;100546.00;4990652;28;20474;-83
2023/03/31 05:56:34;;;;;;;74.63;21.60;;;;;;;11.04;45.50;100550.63;4991548;28;20057;-82
2023/03/31 05:59:00;;;;;;;52.17;18.70;;;;;;;11.06;45.16;100552.19;4996311;28;20037;-79
2023/03/31 06:01:26;;;;;;;61.85;20.92;;;;;;;11.20;44.71;100553.69;5003311;28;20164;-79
2023/03/31 06:03:51;;;;;;;49.15;17.40;;;;;;;11.27;44.73;100547.69;4998630;28;20030;-83
2023/03/31 06:06:17;;;;;;;80.47;24.23;;;;;;;11.42;44.76;100548.19;4988412;28;20154;-83
2023/03/31 06:08:44;;;;;;;75.30;22.98;;;;;;;11.54;44.72;100538.19;4988904;28;20084;-80
2023/03/31 06:11:13;;;;;;;66.38;20.17;;;;;;;11.65;43.87;100538.13;4988363;28;20034;-82
2023/03/31 06:13:39;;;;;;;70.72;18.10;;;;;;;11.79;43.57;100540.50;4988674;28;20033;-81
2023/03/31 06:16:05;;;;;;;89.68;22.05;;;;;;;11.90;43.37;100535.84;4988460;28;20034;-80
2023/03/31 06:18:33;;;;;;;87.70;22.58;;;;;;;11.98;43.48;100522.56;4971983;28;20089;-81
2023/03/31 06:20:58;;;;;;;79.05;23.35;;;;;;;12.04;43.37;100523.00;4989299;28;20089;-83
2023/03/31 06:23:25;;;;;;;92.50;22.52;;;;;;;12.18;43.28;100519.91;4988961;28;20477;-83
2023/03/31 06:25:51;;;;;;;75.80;19.00;;;;;;;12.32;42.79;100533.03;4988678;28;20098;-81
2023/03/31 06:28:17;;;;;;;60.38;18.50;;;;;;;12.20;41.66;100526.03;4989193;28;20061;-84
2023/03/31 06:30:42;;;;;;;66.55;19.67;;;;;;;11.92;42.25;100517.72;4988998;28;20027;-78
2023/03/31 06:33:08;;;;;;;57.03;20.08;;;;;;;12.07;42.68;100518.19;4989270;28;20038;-78
2023/03/31 06:35:37;;;;;;;58.03;16.15;;;;;;;12.12;41.86;100520.47;4986759;28;20054;-82
2023/03/31 06:38:03;;;;;;;40.97;16.33;;;;;;;12.05;41.92;100525.56;4987853;28;20061;-79
2023/03/31 06:40:28;;;;;;;48.92;15.45;;;;;;;12.16;42.09;100521.91;4986902;28;20489;-81
2023/03/31 06:42:54;;;;;;;52.22;17.05;;;;;;;12.14;42.66;100513.94;4988589;28;20498;-79
2023/03/31 06:45:20;;;;;;;67.95;16.33;;;;;;;12.20;42.43;100508.00;4991644;28;20034;-77
2023/03/31 06:47:45;;;;;;;58.75;16.77;;;;;;;12.18;42.75;100509.13;4991628;28;20180;-81
2023/03/31 06:50:11;;;;;;;60.13;17.35;;;;;;;12.15;42.99;100509.41;4992438;28;20058;-78
2023/03/31 06:52:36;;;;;;;58.08;20.33;;;;;;;12.20;42.63;100501.78;4996029;28;21258;-80
2023/03/31 06:55:02;;;;;;;94.35;22.45;;;;;;;12.27;42.80;100508.31;4994422;28;20113;-78
2023/03/31 06:57:28;;;;;;;73.38;21.67;;;;;;;12.41;42.59;100505.22;5009086;28;20619;-82
2023/03/31 06:59:54;;;;;;;66.07;22.23;;;;;;;12.48;42.51;100511.75;4988303;28;20029;-80
2023/03/31 07:02:20;;;;;;;58.42;19.30;;;;;;;12.56;42.18;100525.41;4992423;28;20030;-80
2023/03/31 07:04:45;;;;;;;65.80;20.27;;;;;;;12.65;42.64;100524.56;4992097;28;20030;-81
2023/03/31 07:07:10;;;;;;;74.07;21.73;;;;;;;12.70;42.41;100516.03;4992982;28;20038;-84
2023/03/31 07:09:36;;;;;;;99.13;21.85;;;;;;;12.66;42.00;100515.47;4993591;28;20172;-82
2023/03/31 07:12:04;;;;;;;56.75;15.70;;;;;;;12.61;41.24;100523.13;4974383;28;20030;-80
2023/03/31 07:14:31;;;;;;;102.97;18.55;;;;;;;12.76;40.98;100520.88;4992087;28;20030;-82
2023/03/31 07:16:56;;;;;;;40.53;13.18;;;;;;;12.83;40.68;100505.81;4991866;28;20049;-81
2023/03/31 07:19:23;;;;;;;37.22;11.85;;;;;;;12.89;40.69;100503.41;4975526;28;20624;-81
2023/03/31 07:21:50;;;;;;;48.88;10.20;;;;;;;12.89;40.28;100500.72;4995865;28;20034;-81
2023/03/31 07:24:16;;;;;;;21.70;8.98;;;;;;;13.08;39.84;100499.88;4997661;28;20074;-82
2023/03/31 07:26:41;;;;;;;21.52;8.68;;;;;;;13.05;39.70;100495.59;4998588;28;20042;-82
2023/03/31 07:29:06;;;;;;;30.30;9.32;;;;;;;13.20;39.93;100489.78;5001111;28;20065;-81
2023/03/31 07:31:32;;;;;;;46.72;13.10;;;;;;;13.12;39.41;100493.19;4975061;28;20108;-81
2023/03/31 07:33:58;;;;;;;60.75;10.85;;;;;;;13.14;39.29;100482.25;4991108;28;20042;-81
2023/03/31 07:36:23;;;;;;;16.45;7.07;;;;;;;13.14;38.82;100488.50;4991268;28;20037;-81
2023/03/31 07:38:49;;;;;;;49.97;9.32;;;;;;;13.15;39.04;100479.38;4991433;28;20113;-82
2023/03/31 07:41:18;;;;;;;29.42;9.60;;;;;;;13.11;39.11;100501.44;4991696;28;20481;-81
2023/03/31 07:43:44;;;;;;;26.92;9.18;;;;;;;13.03;38.41;100497.56;4991171;28;20043;-81
2023/03/31 07:46:24;;;;;;;17.75;9.43;;;;;;;12.90;38.94;100505.09;4991746;28;20038;-81
2023/03/31 07:48:51;;;;;;;25.77;10.98;;;;;;;12.90;39.18;100491.59;4993312;28;20482;-80
2023/03/31 07:51:20;;;;;;;19.73;11.30;;;;;;;12.77;39.21;100501.00;4995329;28;20038;-80
2023/03/31 07:53:48;;;;;;;40.92;14.52;;;;;;;12.74;39.23;100494.03;5004618;28;20061;-78
2023/03/31 07:56:15;;;;;;;38.05;15.80;;;;;;;12.66;39.24;100499.28;5003122;28;20051;-80
2023/03/31 07:58:42;;;;;;;32.45;14.60;;;;;;;12.57;39.16;100489.31;4992617;28;20018;-82
2023/03/31 08:01:07;;;;;;;42.80;15.73;;;;;;;12.67;39.95;100490.19;4990997;28;20145;-80
2023/03/31 08:03:33;;;;;;;38.70;14.38;;;;;;;12.69;39.74;100490.91;4991339;28;20608;-82
2023/03/31 08:05:59;;;;;;;39.60;14.60;;;;;;;12.74;39.36;100496.75;4990904;28;20026;-80
2023/03/31 08:08:25;;;;;;;30.17;12.88;;;;;;;12.65;40.17;100497.59;4990807;28;20090;-81
2023/03/31 08:10:51;;;;;;;54.95;17.48;;;;;;;12.72;40.33;100487.91;4994597;28;20046;-83
2023/03/31 08:13:16;;;;;;;20.70;12.18;;;;;;;12.70;40.49;100481.81;4990514;28;20030;-85
2023/03/31 08:15:42;;;;;;;28.80;13.45;;;;;;;12.74;41.08;100491.34;4990714;28;20251;-80
2023/03/31 08:18:07;;;;;;;32.83;14.13;;;;;;;12.72;41.36;100487.91;4990205;28;20494;-80
2023/03/31 08:20:33;;;;;;;30.17;14.00;;;;;;;12.63;41.72;100491.47;4990115;28;20042;-80
2023/03/31 08:22:59;;;;;;;34.65;14.18;;;;;;;12.55;42.59;100480.53;4990080;28;20051;-81
2023/03/31 08:25:24;;;;;;;39.55;15.88;;;;;;;12.48;43.87;100480.25;4990203;28;20042;-79
2023/03/31 08:27:50;;;;;;;31.40;14.48;;;;;;;12.49;43.97;100486.50;4989585;28;20370;-81
2023/03/31 08:30:16;;;;;;;31.95;15.52;;;;;;;12.52;44.75;100478.13;4990061;28;20486;-81
2023/03/31 08:32:41;;;;;;;33.00;17.05;;;;;;;12.47;45.21;100483.09;4989684;28;20034;-81
2023/03/31 08:35:08;;;;;;;38.15;16.20;;;;;;;12.52;45.41;100480.81;4989552;28;20026;-81
2023/03/31 08:37:34;;;;;;;31.83;16.77;;;;;;;12.40;45.81;100468.44;4989372;28;20037;-79
2023/03/31 08:40:01;;;;;;;37.90;17.83;;;;;;;12.28;46.68;100472.28;4998155;28;20520;-80
2023/03/31 08:42:47;;;;;;;49.70;19.38;;;;;;;12.15;47.91;100471.66;4989327;28;20030;-79
2023/03/31 08:45:34;;;;;;;43.95;20.50;;;;;;;12.07;48.20;100471.53;4989374;28;20030;-81
2023/03/31 08:48:16;;;;;;;36.72;20.10;;;;;;;12.04;49.91;100469.09;4990498;28;20461;-80
2023/03/31 08:50:49;;;;;;;54.47;22.63;;;;;;;12.02;51.01;100468.41;4999681;28;20030;-79
2023/03/31 08:54:01;;;;;;;38.13;22.15;;;;;;;12.01;51.52;100459.44;4997980;28;21536;-79
2023/03/31 08:56:29;;;;;;;47.10;20.35;;;;;;;11.91;51.48;100448.63;4909805;29;20036;-80
2023/03/31 08:59:00;;;;;;;45.35;23.95;;;;;;;12.00;51.61;100450.50;4908865;29;20048;-79
2023/03/31 09:01:43;;;;;;;42.13;21.25;;;;;;;12.15;52.50;100455.50;4893036;29;20123;-81
2023/03/31 09:04:16;;;;;;;49.40;19.13;;;;;;;12.01;53.31;100445.97;4908998;29;20130;-79
2023/03/31 09:06:53;;;;;;;41.10;18.13;;;;;;;11.92;54.40;100455.75;4909425;29;20115;-80
2023/03/31 09:09:31;;;;;;;39.92;19.88;;;;;;;11.89;55.52;100444.38;4909395;29;20040;-79
2023/03/31 09:12:06;;;;;;;53.38;20.65;;;;;;;11.87;56.57;100440.94;4892967;29;20605;-81
2023/03/31 09:14:42;;;;;;;66.28;20.80;;;;;;;11.92;56.91;100444.97;4909222;29;20227;-80
2023/03/31 09:17:23;;;;;;;49.08;22.73;;;;;;;11.93;57.04;100446.66;4910175;29;20028;-82
2023/03/31 09:20:09;;;;;;;40.75;22.52;;;;;;;11.99;57.11;100446.09;4909693;29;20110;-80
2023/03/31 09:22:41;;;;;;;47.80;23.83;;;;;;;11.91;57.29;100442.38;4909307;29;20060;-81
2023/03/31 09:25:18;;;;;;;53.08;25.88;;;;;;;11.96;57.83;100430.19;4910062;29;20040;-82
2023/03/31 09:27:46;;;;;;;51.13;23.15;;;;;;;12.00;58.27;100437.03;4909594;29;20048;-82
2023/03/31 09:30:11;;;;;;;47.53;22.33;;;;;;;12.06;59.29;100432.91;4909408;29;20042;-83
2023/03/31 09:32:38;;;;;;;36.40;21.80;;;;;;;11.95;59.83;100433.91;4953898;28;20054;-81
2023/03/31 09:35:20;;;;;;;38.45;23.88;;;;;;;12.08;60.05;100432.78;4983337;28;20030;-78
2023/03/31 09:37:46;;;;;;;46.38;22.38;;;;;;;12.16;60.61;100430.25;5008173;28;20033;-80
2023/03/31 09:40:26;;;;;;;41.92;21.52;;;;;;;12.27;60.04;100427.41;5008762;28;20080;-82
2023/03/31 09:43:07;;;;;;;33.55;20.48;;;;;;;12.35;60.85;100424.88;5009066;28;20033;-84
2023/03/31 09:45:33;;;;;;;43.35;19.42;;;;;;;12.33;61.29;100414.22;5015719;28;20036;-80
2023/03/31 09:48:21;;;;;;;49.20;20.75;;;;;;;12.48;62.59;100420.03;5029840;28;20494;-83
2023/03/31 09:51:12;;;;;;;45.50;22.25;;;;;;;12.45;63.41;100415.78;5019139;28;20805;-82
2023/03/31 09:54:00;;;;;;;30.27;18.15;;;;;;;12.25;63.03;100407.84;5007634;28;20112;-80
2023/03/31 09:56:33;;;;;;;30.77;17.83;;;;;;;12.20;62.47;100405.53;5007916;28;20034;-81
2023/03/31 09:59:02;;;;;;;25.85;17.75;;;;;;;12.18;63.04;100410.25;5008410;28;20045;-80
2023/03/31 10:01:28;;;;;;;31.17;18.77;;;;;;;12.13;63.92;100403.56;5008137;28;20080;-81
2023/03/31 10:03:55;;;;;;;31.77;18.30;;;;;;;11.88;64.99;100410.34;5008593;28;20029;-81
2023/03/31 10:06:22;;;;;;;34.30;19.90;;;;;;;11.60;66.02;100395.75;5008669;28;20168;-82
2023/03/31 10:08:50;;;;;;;27.95;18.60;;;;;;;11.54;65.89;100406.22;5008515;28;20092;-80
2023/03/31 10:11:16;;;;;;;26.88;16.90;;;;;;;11.36;66.39;100403.31;5008807;28;20476;-81
2023/03/31 10:14:07;;;;;;;31.33;18.45;;;;;;;11.25;66.49;100403.44;5008428;28;20302;-84
2023/03/31 10:16:49;;;;;;;30.77;19.10;;;;;;;11.04;67.46;100394.53;4928314;29;20448;-83
2023/03/31 10:19:23;;;;;;;;;;;;;;;11.03;68.08;100398.19;4928101;29;20404;-82
2023/03/31 10:21:59;;;;;;;38.63;20.30;;;;;;;11.00;67.99;100398.47;4929057;29;20291;-79
2023/03/31 10:24:34;;;;;;;37.03;21.88;;;;;;;11.01;69.16;100397.50;4928884;29;20044;-80
2023/03/31 10:27:00;;;;;;;43.63;21.73;;;;;;;10.91;69.58;100382.16;4928533;29;20058;-87
2023/03/31 10:29:32;;;;;;;38.55;19.90;;;;;;;10.92;69.81;100381.13;4928605;29;20035;-87
2023/03/31 10:32:39;;;;;;;37.78;20.27;;;;;;;10.96;70.40;100373.66;4929160;29;20074;-83
2023/03/31 10:35:26;;;;;;;37.25;17.90;;;;;;;10.85;71.48;100355.78;4917677;29;20507;-85
2023/03/31 10:37:58;;;;;;;30.40;16.10;;;;;;;10.98;71.22;100357.41;4876846;29;20477;-87
2023/03/31 10:40:26;;;;;;;29.50;14.15;;;;;;;11.10;70.47;100359.00;4880649;29;20044;-85
2023/03/31 10:43:03;;;;;;;29.77;14.52;;;;;;;11.17;71.25;100354.78;4886146;29;20116;-85
2023/03/31 10:45:36;;;;;;;40.78;15.68;;;;;;;11.34;71.61;100346.91;4893090;29;20048;-83
2023/03/31 10:48:01;;;;;;;34.20;15.63;;;;;;;11.48;72.54;100343.00;4886935;29;20053;-87
2023/03/31 10:50:30;;;;;;;42.67;16.55;;;;;;;11.64;71.75;100332.53;4876804;29;20033;-83
2023/03/31 10:53:12;;;;;;;27.63;15.50;;;;;;;11.68;71.70;100333.94;4892033;28;20534;-85
2023/03/31 10:55:50;;;;;;;35.72;15.30;;;;;;;11.77;71.57;100316.16;4949868;28;20035;-86
2023/03/31 10:58:33;;;;;;;25.02;13.43;;;;;;;12.00;71.45;100334.59;4949226;28;20046;-85
2023/03/31 11:01:21;;;;;;;28.17;16.30;;;;;;;12.18;70.79;100309.63;4958036;28;20035;-87
2023/03/31 11:04:12;;;;;;;43.38;20.05;;;;;;;12.49;70.53;100325.50;4949795;28;20042;-86
2023/03/31 11:07:05;;;;;;;22.00;10.52;;;;;;;12.59;68.33;100309.31;4948958;28;20043;-87
2023/03/31 11:09:46;;;;;;;20.67;9.98;;;;;;;12.75;66.52;100306.81;4948505;28;20051;-86
2023/03/31 11:12:25;;;;;;;15.55;10.43;;;;;;;12.79;65.73;100294.75;4948873;28;20042;-86
2023/03/31 11:15:10;;;;;;;22.05;13.15;;;;;;;12.45;66.16;100298.94;4965947;28;20090;-85
2023/03/31 11:17:46;;;;;;;24.75;14.98;;;;;;;12.30;67.68;100298.56;4988620;28;20142;-81
2023/03/31 11:20:19;;;;;;;21.35;11.45;;;;;;;12.34;67.48;100288.34;4993052;28;20051;-86
2023/03/31 11:22:57;;;;;;;20.48;12.23;;;;;;;12.54;67.35;100289.97;4988242;28;20050;-82
2023/03/31 11:25:45;;;;;;;20.48;12.02;;;;;;;12.59;66.65;100276.94;4992144;28;20031;-85
2023/03/31 11:28:16;;;;;;;20.80;11.00;;;;;;;12.86;66.35;100286.91;4988764;28;20433;-84
2023/03/31 11:31:00;;;;;;;19.05;10.18;;;;;;;13.11;65.92;100288.13;4993195;28;20030;-81
2023/03/31 11:33:34;;;;;;;20.15;9.63;;;;;;;13.28;65.30;100277.38;4991310;28;20915;-80
2023/03/31 11:36:05;;;;;;;21.50;11.30;;;;;;;13.34;64.06;100284.88;4992434;28;20023;-82